Time;durP1;ratioP1;P1;durP2;ratioP2;P2;SDS_P1;SDS_P2;PMS_P1;PMS_P2;Temp;Humidity;BMP_temperature;BMP_pressure;BME280_temperature;BME280_humidity;BME280_pressure;Samples;Min_cycle;Max_cycle;Signal;HPM_P1;HPM_P2
2021/07/01 00:01:09;;;;;;;3.37;3.07;;;13.30;99.90;;;;;;5115989;28;20429;-67
2021/07/01 00:03:35;;;;;;;5.73;2.80;;;13.20;99.90;;;;;;5115913;28;20543;-66
2021/07/01 00:06:01;;;;;;;3.47;3.03;;;13.10;99.90;;;;;;5115871;28;20199;-66
2021/07/01 00:08:26;;;;;;;4.17;3.73;;;13.10;99.90;;;;;;5116012;28;20612;-67
2021/07/01 00:10:52;;;;;;;5.90;3.10;;;13.20;99.90;;;;;;5115951;28;20168;-67
2021/07/01 00:13:18;;;;;;;3.73;3.27;;;13.30;99.90;;;;;;5115689;27;20282;-66
2021/07/01 00:15:44;;;;;;;3.30;2.90;;;13.30;99.90;;;;;;5115519;28;20427;-66
2021/07/01 00:18:10;;;;;;;4.17;3.80;;;13.30;99.90;;;;;;5115701;28;20410;-67
2021/07/01 00:20:36;;;;;;;4.27;3.97;;;13.40;99.90;;;;;;5114428;28;20916;-67
2021/07/01 00:23:02;;;;;;;7.10;3.60;;;13.40;99.90;;;;;;5115466;28;20429;-67
2021/07/01 00:25:28;;;;;;;5.73;3.70;;;13.50;99.90;;;;;;5115401;28;20180;-66
2021/07/01 00:27:54;;;;;;;3.70;3.43;;;13.50;99.90;;;;;;5115271;28;20862;-67
2021/07/01 00:30:21;;;;;;;3.40;3.10;;;13.50;99.90;;;;;;5115483;28;20525;-67
2021/07/01 00:32:48;;;;;;;3.93;3.63;;;13.60;99.90;;;;;;5115267;28;20223;-66
2021/07/01 00:35:14;;;;;;;3.70;3.40;;;13.60;99.90;;;;;;5115381;28;20398;-66
2021/07/01 00:37:40;;;;;;;3.37;3.07;;;13.60;99.90;;;;;;5115268;28;20413;-68
2021/07/01 00:40:08;;;;;;;3.57;3.27;;;13.50;99.90;;;;;;5115115;27;20815;-66
2021/07/01 00:42:34;;;;;;;3.57;3.13;;;13.50;99.90;;;;;;5115076;28;20422;-66
2021/07/01 00:45:00;;;;;;;3.20;3.00;;;13.50;99.90;;;;;;5114715;28;20394;-68
2021/07/01 00:47:26;;;;;;;4.90;4.23;;;13.40;99.90;;;;;;5115036;28;20407;-66
2021/07/01 00:49:53;;;;;;;6.23;3.90;;;13.30;99.90;;;;;;5115156;28;20178;-67
2021/07/01 00:52:19;;;;;;;4.40;3.93;;;13.30;99.90;;;;;;5115033;28;20429;-67
2021/07/01 00:54:46;;;;;;;4.93;3.60;;;13.40;99.90;;;;;;5114919;27;20386;-67
2021/07/01 00:57:11;;;;;;;4.23;3.70;;;13.40;99.90;;;;;;5114897;28;20395;-67
2021/07/01 00:59:38;;;;;;;3.37;3.07;;;13.50;99.90;;;;;;5114871;28;20918;-66
2021/07/01 01:02:05;;;;;;;4.10;3.70;;;13.50;99.90;;;;;;5114718;28;20441;-67
2021/07/01 01:04:31;;;;;;;5.10;4.60;;;13.50;99.90;;;;;;5114648;28;20402;-67
2021/07/01 01:06:56;;;;;;;4.30;3.90;;;13.40;99.90;;;;;;5114451;28;20533;-67
2021/07/01 01:09:22;;;;;;;5.60;5.00;;;13.30;99.90;;;;;;5114534;28;20734;-67
2021/07/01 01:11:48;;;;;;;6.33;5.73;;;13.50;99.90;;;;;;5114424;28;20182;-67
2021/07/01 01:14:14;;;;;;;6.60;4.30;;;13.60;99.90;;;;;;5114555;28;20949;-67
2021/07/01 01:16:40;;;;;;;6.27;4.70;;;13.60;99.90;;;;;;5114370;28;20280;-66
2021/07/01 01:19:05;;;;;;;5.67;4.77;;;13.60;99.90;;;;;;5114583;28;20397;-67
2021/07/01 01:21:31;;;;;;;6.47;5.87;;;13.60;99.90;;;;;;5114513;28;20484;-66
2021/07/01 01:24:00;;;;;;;7.13;6.37;;;13.60;99.90;;;;;;5114325;28;20176;-67
2021/07/01 01:26:26;;;;;;;5.07;4.57;;;13.70;99.90;;;;;;5114139;28;20540;-66
2021/07/01 01:28:53;;;;;;;5.17;4.67;;;13.60;99.90;;;;;;5114151;27;20483;-66
2021/07/01 01:31:20;;;;;;;7.10;5.70;;;13.40;99.90;;;;;;5114265;28;20414;-66
2021/07/01 01:33:45;;;;;;;5.40;4.90;;;13.50;99.90;;;;;;5114153;28;20402;-67
2021/07/01 01:36:11;;;;;;;4.53;3.87;;;13.60;99.90;;;;;;5114152;28;20398;-66
2021/07/01 01:38:37;;;;;;;3.60;3.30;;;13.60;99.90;;;;;;5114111;28;20172;-66
2021/07/01 01:41:03;;;;;;;4.50;3.17;;;13.70;99.90;;;;;;5114102;28;20273;-67
2021/07/01 01:43:29;;;;;;;3.37;3.07;;;13.70;99.90;;;;;;5113947;27;20829;-66
2021/07/01 01:45:54;;;;;;;4.40;3.73;;;13.80;99.90;;;;;;5113867;28;20425;-66
2021/07/01 01:48:21;;;;;;;4.07;3.70;;;13.90;99.90;;;;;;5114038;28;20252;-67
2021/07/01 01:50:47;;;;;;;3.33;3.07;;;13.90;99.90;;;;;;5114082;28;20196;-67
2021/07/01 01:53:13;;;;;;;4.17;3.27;;;13.90;99.90;;;;;;5113836;28;20449;-66
2021/07/01 01:55:40;;;;;;;5.70;2.63;;;13.90;99.90;;;;;;5112649;28;20532;-67
2021/07/01 01:58:06;;;;;;;4.93;3.60;;;13.80;99.90;;;;;;5113132;28;20505;-66
2021/07/01 02:00:32;;;;;;;3.17;2.93;;;13.70;99.90;;;;;;5114050;28;20461;-66
2021/07/01 02:03:00;;;;;;;3.20;2.90;;;13.80;99.90;;;;;;5113787;28;20476;-67
2021/07/01 02:05:26;;;;;;;4.40;3.23;;;13.80;99.90;;;;;;5113781;28;20433;-67
2021/07/01 02:07:52;;;;;;;2.80;2.60;;;13.70;99.90;;;;;;5113518;28;20452;-67
2021/07/01 02:10:23;;;;;;;4.60;3.00;;;13.60;99.90;;;;;;5114019;28;20400;-66
2021/07/01 02:12:50;;;;;;;3.63;3.30;;;13.70;99.90;;;;;;5113936;28;20821;-67
2021/07/01 02:15:20;;;;;;;2.97;2.73;;;13.70;99.90;;;;;;5113854;28;20389;-66
2021/07/01 02:17:46;;;;;;;3.93;3.10;;;13.70;99.90;;;;;;5113690;28;20445;-67
2021/07/01 02:20:18;;;;;;;3.40;3.10;;;13.80;99.90;;;;;;5114583;28;20832;-67
2021/07/01 02:22:44;;;;;;;3.37;2.80;;;13.70;99.90;;;;;;5113512;28;20943;-66
2021/07/01 02:25:11;;;;;;;3.43;3.17;;;13.70;99.90;;;;;;5113674;28;20535;-67
2021/07/01 02:27:37;;;;;;;3.50;3.30;;;13.50;99.90;;;;;;5113392;28;20419;-67
2021/07/01 02:30:06;;;;;;;2.97;2.67;;;13.60;99.90;;;;;;5113804;28;20937;-67
2021/07/01 02:32:32;;;;;;;4.27;2.60;;;13.70;99.90;;;;;;5113599;28;20422;-67
2021/07/01 02:34:57;;;;;;;2.63;2.40;;;13.80;99.90;;;;;;5113508;28;20401;-66
2021/07/01 02:37:24;;;;;;;2.77;2.40;;;13.90;99.90;;;;;;5113384;28;20409;-66
2021/07/01 02:39:50;;;;;;;2.13;1.93;;;14.00;99.90;;;;;;5113568;28;20180;-67
2021/07/01 02:42:16;;;;;;;3.00;2.10;;;14.00;99.90;;;;;;5113403;28;20794;-67
2021/07/01 02:44:42;;;;;;;3.27;2.97;;;14.00;99.90;;;;;;5113384;28;20406;-67
2021/07/01 02:47:08;;;;;;;3.40;3.10;;;14.00;99.90;;;;;;5113069;28;20437;-67
2021/07/01 02:49:34;;;;;;;2.30;2.10;;;14.00;99.90;;;;;;5113343;28;20442;-67
2021/07/01 02:51:59;;;;;;;2.27;2.07;;;14.10;99.90;;;;;;5113370;28;20418;-67
2021/07/01 02:54:26;;;;;;;3.67;2.80;;;14.00;99.90;;;;;;5113343;28;20466;-66
2021/07/01 02:56:51;;;;;;;2.13;1.93;;;14.10;99.90;;;;;;5113207;28;20537;-66
2021/07/01 02:59:19;;;;;;;2.40;2.20;;;14.00;99.90;;;;;;5113203;28;20405;-67
2021/07/01 03:01:47;;;;;;;2.23;2.13;;;14.10;99.90;;;;;;5113392;28;20794;-67
2021/07/01 03:04:13;;;;;;;2.30;2.10;;;14.10;99.90;;;;;;5113265;28;20447;-67
2021/07/01 03:06:39;;;;;;;2.23;2.03;;;14.10;99.90;;;;;;5113019;28;20803;-67
2021/07/01 03:09:05;;;;;;;4.23;2.77;;;14.00;99.90;;;;;;5114295;28;21052;-67
2021/07/01 03:11:31;;;;;;;4.33;2.63;;;14.00;99.90;;;;;;5115728;28;20414;-67
2021/07/01 03:13:57;;;;;;;2.30;1.80;;;14.00;99.90;;;;;;5116918;28;20427;-67
2021/07/01 03:16:23;;;;;;;2.20;2.07;;;14.00;99.90;;;;;;5116700;28;20393;-67
2021/07/01 03:18:54;;;;;;;2.00;1.90;;;14.00;99.90;;;;;;5116847;28;20172;-66
2021/07/01 03:21:21;;;;;;;4.63;2.73;;;14.00;99.90;;;;;;5116931;28;20168;-67
2021/07/01 03:23:47;;;;;;;3.80;2.83;;;14.00;99.90;;;;;;5116642;28;20442;-67
2021/07/01 03:26:14;;;;;;;2.33;2.13;;;14.10;99.90;;;;;;5116591;28;20429;-67
2021/07/01 03:28:41;;;;;;;2.50;2.30;;;14.10;99.90;;;;;;5116688;28;20442;-67
2021/07/01 03:31:07;;;;;;;2.43;2.23;;;14.10;99.90;;;;;;5116818;28;20391;-67
2021/07/01 03:33:34;;;;;;;3.00;2.70;;;14.10;99.90;;;;;;5116455;28;20429;-67
2021/07/01 03:36:00;;;;;;;4.53;2.20;;;14.10;99.90;;;;;;5116216;28;20402;-67
2021/07/01 03:38:26;;;;;;;3.20;2.37;;;14.00;99.90;;;;;;5116411;28;20716;-66
2021/07/01 03:40:52;;;;;;;3.70;3.30;;;14.10;99.90;;;;;;5116628;28;20402;-67
2021/07/01 03:43:18;;;;;;;2.93;2.23;;;14.10;99.90;;;;;;5116264;28;20183;-67
2021/07/01 03:45:44;;;;;;;2.90;2.70;;;14.10;99.90;;;;;;5116043;28;20421;-67
2021/07/01 03:48:10;;;;;;;2.33;2.23;;;14.10;99.90;;;;;;5116209;27;20536;-67
2021/07/01 03:50:35;;;;;;;3.10;2.43;;;14.10;99.90;;;;;;5116422;28;20927;-67
2021/07/01 03:53:01;;;;;;;2.83;2.63;;;14.00;99.90;;;;;;5116061;28;20504;-67
2021/07/01 03:55:27;;;;;;;2.57;2.37;;;14.10;99.90;;;;;;5116115;28;20172;-67
2021/07/01 03:57:52;;;;;;;3.30;3.10;;;14.20;99.90;;;;;;5116100;28;20176;-67
2021/07/01 04:00:18;;;;;;;2.47;2.10;;;14.20;99.90;;;;;;5116319;28;20172;-67
2021/07/01 04:02:44;;;;;;;3.70;2.70;;;14.30;99.90;;;;;;5115935;28;20184;-67
2021/07/01 04:05:10;;;;;;;4.53;4.20;;;14.30;99.90;;;;;;5116039;28;20176;-67
2021/07/01 04:07:35;;;;;;;2.50;2.30;;;14.30;99.90;;;;;;5115683;28;20180;-67
2021/07/01 04:10:07;;;;;;;3.77;2.37;;;14.30;99.90;;;;;;5115997;28;20462;-67
2021/07/01 04:12:34;;;;;;;3.30;3.00;;;14.30;99.90;;;;;;5116000;28;20587;-67
2021/07/01 04:14:59;;;;;;;3.00;2.70;;;14.30;99.90;;;;;;5115815;28;20493;-67
2021/07/01 04:17:25;;;;;;;2.70;2.13;;;14.30;99.90;;;;;;5115624;28;20433;-67
2021/07/01 04:19:51;;;;;;;2.63;2.43;;;14.40;99.90;;;;;;5114900;28;20168;-66
2021/07/01 04:22:16;;;;;;;4.77;3.00;;;14.30;99.90;;;;;;5115717;28;20271;-66
2021/07/01 04:24:42;;;;;;;4.17;2.90;;;14.30;99.90;;;;;;5115520;28;20212;-67
2021/07/01 04:27:08;;;;;;;2.60;2.40;;;14.10;99.90;;;;;;5115232;28;20179;-67
2021/07/01 04:29:33;;;;;;;2.80;2.30;;;14.10;99.90;;;;;;5115565;28;20199;-67
2021/07/01 04:31:59;;;;;;;4.47;2.87;;;14.20;99.90;;;;;;5115636;28;20191;-67
2021/07/01 04:34:25;;;;;;;3.80;2.93;;;14.20;99.90;;;;;;5115546;28;20182;-67
2021/07/01 04:36:51;;;;;;;3.30;3.00;;;14.30;99.90;;;;;;5115131;28;20160;-67
2021/07/01 04:39:17;;;;;;;3.37;2.40;;;14.30;99.90;;;;;;5115399;28;20389;-67
2021/07/01 04:41:42;;;;;;;2.87;2.67;;;14.40;99.90;;;;;;5115183;28;20506;-67
2021/07/01 04:44:08;;;;;;;3.17;2.80;;;14.40;99.90;;;;;;5115140;28;20263;-67
2021/07/01 04:46:34;;;;;;;3.43;2.80;;;14.40;99.90;;;;;;5114840;28;20184;-67
2021/07/01 04:49:00;;;;;;;3.93;3.00;;;14.40;99.90;;;;;;5115031;28;20452;-67
2021/07/01 04:51:26;;;;;;;2.47;2.27;;;14.40;99.90;;;;;;5113578;28;20594;-67
2021/07/01 04:53:52;;;;;;;3.70;3.37;;;14.50;99.90;;;;;;5114956;28;20161;-67
2021/07/01 04:56:18;;;;;;;3.30;3.00;;;14.50;99.90;;;;;;5114814;28;20538;-67
2021/07/01 04:58:44;;;;;;;2.60;2.40;;;14.60;99.90;;;;;;5114882;28;20402;-67
2021/07/01 05:01:09;;;;;;;2.73;2.53;;;14.60;99.90;;;;;;5114732;28;20402;-66
2021/07/01 05:03:35;;;;;;;2.87;2.33;;;14.60;99.90;;;;;;5114687;28;20553;-67
2021/07/01 05:06:02;;;;;;;2.53;2.33;;;14.60;99.90;;;;;;5114681;27;20168;-67
2021/07/01 05:08:28;;;;;;;2.47;2.27;;;14.70;99.90;;;;;;5114724;28;20442;-67
2021/07/01 05:10:53;;;;;;;2.43;2.23;;;14.80;99.90;;;;;;5114530;28;20401;-67
2021/07/01 05:13:19;;;;;;;2.93;2.73;;;14.80;99.90;;;;;;5114475;28;20187;-67
2021/07/01 05:15:45;;;;;;;2.90;2.70;;;14.60;99.90;;;;;;5114418;28;20175;-67
2021/07/01 05:18:10;;;;;;;3.17;2.97;;;14.60;99.90;;;;;;5114630;28;20811;-67
2021/07/01 05:20:36;;;;;;;2.60;2.30;;;14.60;99.90;;;;;;5114630;28;20639;-67
2021/07/01 05:23:02;;;;;;;2.70;2.50;;;14.50;99.90;;;;;;5114329;28;20196;-67
2021/07/01 05:25:28;;;;;;;3.00;2.53;;;14.50;99.90;;;;;;5114492;28;20402;-67
2021/07/01 05:27:54;;;;;;;2.30;2.20;;;14.60;99.90;;;;;;5114147;28;20252;-67
2021/07/01 05:30:19;;;;;;;2.57;2.37;;;14.70;99.90;;;;;;5114338;28;20160;-67
2021/07/01 05:32:45;;;;;;;2.87;2.60;;;14.70;99.90;;;;;;5113488;28;20193;-67
2021/07/01 05:35:11;;;;;;;2.70;2.50;;;14.70;99.90;;;;;;5114402;28;20161;-67
2021/07/01 05:37:37;;;;;;;3.37;2.60;;;14.70;99.90;;;;;;5113966;28;20913;-67
2021/07/01 05:40:04;;;;;;;3.30;3.03;;;14.70;99.90;;;;;;5114286;28;20165;-67
2021/07/01 05:42:30;;;;;;;3.17;2.90;;;14.70;99.90;;;;;;5113974;28;20430;-67
2021/07/01 05:44:55;;;;;;;2.43;2.30;;;14.70;99.90;;;;;;5112721;28;20414;-67
2021/07/01 05:47:21;;;;;;;3.20;2.87;;;14.70;99.90;;;;;;5113985;28;20167;-67
2021/07/01 05:49:47;;;;;;;3.97;3.57;;;14.80;99.90;;;;;;5114178;28;20279;-67
2021/07/01 05:52:17;;;;;;;4.17;3.87;;;14.70;99.90;;;;;;5113994;28;20212;-67
2021/07/01 05:54:53;;;;;;;3.40;3.10;;;14.70;99.90;;;;;;5114200;28;20390;-67
2021/07/01 05:57:19;;;;;;;3.97;3.43;;;14.80;99.90;;;;;;5113855;28;20434;-67
2021/07/01 05:59:44;;;;;;;5.50;5.00;;;14.70;99.90;;;;;;5113955;28;20451;-67
2021/07/01 06:02:10;;;;;;;4.67;4.27;;;14.70;99.90;;;;;;5114021;28;20539;-67
2021/07/01 06:04:36;;;;;;;5.83;4.80;;;14.70;99.90;;;;;;5113816;28;20179;-67
2021/07/01 06:07:01;;;;;;;7.20;6.50;;;14.60;99.90;;;;;;5113678;28;20164;-67
2021/07/01 06:09:28;;;;;;;6.50;5.80;;;14.70;99.90;;;;;;5113670;28;20192;-67
2021/07/01 06:11:58;;;;;;;7.47;5.50;;;14.70;99.90;;;;;;5113621;28;20462;-67
2021/07/01 06:14:26;;;;;;;6.13;4.67;;;14.70;99.90;;;;;;5113781;28;20501;-67
2021/07/01 06:16:54;;;;;;;5.10;4.70;;;14.80;99.90;;;;;;5113530;28;20459;-67
2021/07/01 06:19:20;;;;;;;6.47;5.80;;;14.70;99.90;;;;;;5113775;28;20734;-66
2021/07/01 06:21:50;;;;;;;5.77;5.20;;;14.30;99.90;;;;;;5112485;28;20941;-67
2021/07/01 06:24:16;;;;;;;5.30;4.80;;;14.40;99.90;;;;;;5113616;28;20394;-66
2021/07/01 06:26:44;;;;;;;7.37;5.93;;;14.40;99.90;;;;;;5113617;28;20410;-67
2021/07/01 06:29:11;;;;;;;5.63;5.13;;;14.50;99.90;;;;;;5113655;28;20441;-67
2021/07/01 06:31:38;;;;;;;6.43;5.77;;;14.60;99.90;;;;;;5113720;28;20735;-67
2021/07/01 06:34:03;;;;;;;6.37;5.40;;;14.60;99.90;;;;;;5113523;28;20804;-67
2021/07/01 06:36:33;;;;;;;6.83;6.13;;;14.70;99.90;;;;;;5113549;28;20439;-67
2021/07/01 06:39:04;;;;;;;11.80;6.33;;;14.80;99.90;;;;;;5112226;28;20535;-67
2021/07/01 06:41:32;;;;;;;5.90;5.10;;;14.60;99.90;;;;;;5113593;28;20820;-67
2021/07/01 06:43:58;;;;;;;5.97;5.23;;;14.70;99.90;;;;;;5116125;28;20921;-67
2021/07/01 06:46:30;;;;;;;5.83;5.00;;;14.70;99.90;;;;;;5117177;28;20421;-67
2021/07/01 06:48:56;;;;;;;8.00;5.90;;;14.70;99.90;;;;;;5117769;28;20444;-67
2021/07/01 06:51:22;;;;;;;6.50;5.20;;;14.90;99.90;;;;;;5117452;28;20889;-67
2021/07/01 06:53:48;;;;;;;6.33;5.10;;;15.00;99.90;;;;;;5116012;28;20397;-66
2021/07/01 06:56:14;;;;;;;7.30;5.90;;;15.10;99.90;;;;;;5117135;28;20405;-67
2021/07/01 06:58:44;;;;;;;5.53;4.63;;;15.10;99.90;;;;;;5115843;28;20414;-67
2021/07/01 07:01:10;;;;;;;5.23;4.80;;;15.20;99.90;;;;;;5117299;28;20164;-67
2021/07/01 07:03:37;;;;;;;5.50;5.00;;;15.20;99.90;;;;;;5117064;27;20425;-67
2021/07/01 07:06:04;;;;;;;5.20;4.70;;;15.30;99.90;;;;;;5115680;28;20547;-67
2021/07/01 07:08:30;;;;;;;7.37;5.57;;;15.30;99.90;;;;;;5117071;28;20442;-67
2021/07/01 07:10:57;;;;;;;5.60;4.77;;;15.40;99.90;;;;;;5117196;28;20394;-67
2021/07/01 07:13:26;;;;;;;4.97;4.47;;;15.50;99.90;;;;;;5116826;28;20422;-67
2021/07/01 07:15:59;;;;;;;4.40;3.60;;;15.60;99.90;;;;;;5116877;28;20406;-67
2021/07/01 07:18:27;;;;;;;5.57;4.57;;;15.60;99.90;;;;;;5117090;28;20390;-67
2021/07/01 07:21:02;;;;;;;4.00;3.60;;;15.60;99.90;;;;;;5117020;28;20444;-67
2021/07/01 07:23:33;;;;;;;4.87;4.40;;;15.60;99.90;;;;;;5116617;28;20516;-67
2021/07/01 07:26:03;;;;;;;6.17;5.50;;;15.60;99.90;;;;;;5115466;28;20411;-67
2021/07/01 07:28:31;;;;;;;5.30;4.73;;;15.50;99.90;;;;;;5116660;28;20460;-67
2021/07/01 07:30:57;;;;;;;4.60;4.00;;;15.80;99.90;;;;;;5116595;28;20764;-67
2021/07/01 07:33:32;;;;;;;3.20;2.90;;;16.00;99.90;;;;;;5116504;28;20417;-67
2021/07/01 07:35:58;;;;;;;3.60;3.30;;;16.20;99.90;;;;;;5116458;28;20955;-67
2021/07/01 07:38:27;;;;;;;3.77;3.07;;;16.50;99.90;;;;;;5116572;28;20403;-67
2021/07/01 07:40:54;;;;;;;2.83;2.63;;;16.70;98.80;;;;;;5116656;28;20171;-67
2021/07/01 07:43:21;;;;;;;2.63;2.43;;;16.90;99.90;;;;;;5116281;28;20942;-67
2021/07/01 07:45:48;;;;;;;3.37;3.17;;;17.00;99.70;;;;;;5115958;27;20931;-67
2021/07/01 07:48:14;;;;;;;3.20;2.63;;;16.80;99.20;;;;;;5116296;28;20849;-67
2021/07/01 07:50:42;;;;;;;3.60;3.30;;;16.80;99.90;;;;;;5116407;28;20394;-67
2021/07/01 07:53:13;;;;;;;2.80;2.47;;;16.80;98.90;;;;;;5116084;28;20459;-67
2021/07/01 07:55:41;;;;;;;2.60;2.40;;;16.90;98.80;;;;;;5115319;28;20394;-67
2021/07/01 07:58:09;;;;;;;3.30;2.50;;;17.20;99.40;;;;;;5116092;28;20405;-67
2021/07/01 08:00:36;;;;;;;3.73;2.70;;;17.50;98.30;;;;;;5116103;28;21038;-67
2021/07/01 08:03:06;;;;;;;2.53;2.33;;;18.00;96.80;;;;;;5115955;28;20432;-67
2021/07/01 08:05:32;;;;;;;4.53;4.23;;;18.50;96.40;;;;;;5116228;28;20768;-67
2021/07/01 08:08:00;;;;;;;2.60;2.40;;;18.70;95.60;;;;;;5115805;28;20483;-67
2021/07/01 08:10:31;;;;;;;3.53;2.63;;;18.70;95.10;;;;;;5116005;28;20453;-67
2021/07/01 08:13:04;;;;;;;4.53;3.00;;;18.20;95.10;;;;;;5115835;28;20432;-68
2021/07/01 08:15:32;;;;;;;3.63;2.50;;;18.00;96.00;;;;;;5116031;27;20477;-70
2021/07/01 08:17:59;;;;;;;5.00;3.40;;;18.00;96.70;;;;;;5115499;28;20399;-69
2021/07/01 08:20:25;;;;;;;2.67;2.47;;;18.50;96.20;;;;;;5115778;27;20462;-67
2021/07/01 08:22:53;;;;;;;4.80;2.43;;;19.90;97.20;;;;;;5115974;28;20429;-70
2021/07/01 08:25:21;;;;;;;2.90;2.70;;;20.90;93.80;;;;;;5115555;28;20399;-69
2021/07/01 08:27:48;;;;;;;2.93;2.73;;;21.80;91.80;;;;;;5115278;28;20477;-67
2021/07/01 08:30:16;;;;;;;4.63;3.00;;;22.00;91.20;;;;;;5115465;28;20397;-70
2021/07/01 08:32:46;;;;;;;2.53;2.33;;;22.00;90.80;;;;;;5115351;28;20421;-70
2021/07/01 08:35:20;;;;;;;2.93;2.73;;;21.60;90.50;;;;;;5115314;28;20425;-69
2021/07/01 08:37:49;;;;;;;3.27;2.70;;;20.90;91.20;;;;;;5115140;28;20405;-70
2021/07/01 08:40:17;;;;;;;3.10;2.80;;;20.30;92.90;;;;;;5115329;27;20393;-68
2021/07/01 08:42:43;;;;;;;4.67;2.90;;;20.40;93.20;;;;;;5115376;28;20422;-68
2021/07/01 08:45:13;;;;;;;2.77;2.57;;;21.90;92.10;;;;;;5115000;28;20879;-70
2021/07/01 08:47:41;;;;;;;3.10;2.40;;;23.90;89.10;;;;;;5114965;28;20377;-69
2021/07/01 08:50:17;;;;;;;3.10;2.50;;;25.80;76.40;;;;;;5115243;28;20377;-69
2021/07/01 08:53:01;;;;;;;3.03;2.83;;;26.60;68.70;;;;;;5115049;28;20388;-70
2021/07/01 08:55:28;;;;;;;3.03;2.73;;;26.80;70.00;;;;;;5115095;28;20935;-68
2021/07/01 08:57:56;;;;;;;3.03;2.83;;;26.30;74.90;;;;;;5114612;28;20461;-69
2021/07/01 09:00:23;;;;;;;2.60;2.40;;;26.20;67.90;;;;;;5114843;28;20390;-69
2021/07/01 09:03:04;;;;;;;3.10;2.80;;;26.80;69.70;;;;;;5114783;28;20441;-70
2021/07/01 09:05:34;;;;;;;3.60;3.30;;;26.40;63.80;;;;;;5114629;28;20382;-67
2021/07/01 09:08:07;;;;;;;3.57;3.37;;;25.70;65.50;;;;;;5114682;28;20733;-68
2021/07/01 09:10:34;;;;;;;3.87;3.57;;;25.80;67.40;;;;;;5115123;28;20384;-68
2021/07/01 09:13:04;;;;;;;3.20;2.77;;;25.80;65.00;;;;;;5114555;28;20408;-70
2021/07/01 09:15:31;;;;;;;5.00;3.63;;;25.70;71.90;;;;;;5114599;28;20375;-67
2021/07/01 09:17:57;;;;;;;3.30;3.00;;;25.70;64.60;;;;;;5114518;28;20376;-68
2021/07/01 09:20:34;;;;;;;3.10;2.90;;;25.30;65.20;;;;;;5114569;28;20373;-70
2021/07/01 09:23:01;;;;;;;3.43;3.07;;;24.70;65.60;;;;;;5114581;28;20410;-68
2021/07/01 09:25:27;;;;;;;4.43;3.10;;;23.90;71.50;;;;;;5114650;28;20395;-70
2021/07/01 09:27:55;;;;;;;5.30;3.80;;;23.40;71.20;;;;;;5114139;28;20417;-70
2021/07/01 09:30:25;;;;;;;2.80;2.60;;;22.80;76.30;;;;;;5114442;28;20761;-68
2021/07/01 09:32:59;;;;;;;3.67;3.37;;;22.30;79.50;;;;;;5114292;28;20432;-70
2021/07/01 09:35:27;;;;;;;3.93;3.60;;;22.10;77.20;;;;;;5114374;28;20760;-66
2021/07/01 09:37:54;;;;;;;3.17;2.97;;;22.10;81.90;;;;;;5114048;28;20399;-67
2021/07/01 09:40:21;;;;;;;4.70;2.80;;;22.90;76.00;;;;;;5114219;28;20412;-68
2021/07/01 09:42:56;;;;;;;3.80;3.40;;;23.30;77.10;;;;;;5114099;28;20461;-69
2021/07/01 09:45:24;;;;;;;3.97;3.67;;;23.50;73.20;;;;;;5114039;27;20424;-68
2021/07/01 09:48:05;;;;;;;6.90;3.53;;;23.60;74.30;;;;;;5113919;28;20453;-69
2021/07/01 09:50:37;;;;;;;3.40;3.10;;;24.40;72.00;;;;;;5114029;28;20368;-69
2021/07/01 09:53:04;;;;;;;3.40;3.20;;;25.30;64.70;;;;;;5114060;28;20418;-68
2021/07/01 09:55:31;;;;;;;3.43;3.13;;;25.90;67.00;;;;;;5114109;28;20369;-68
2021/07/01 09:58:03;;;;;;;3.43;3.13;;;27.00;67.50;;;;;;5113917;28;20406;-70
2021/07/01 10:00:31;;;;;;;3.70;3.37;;;28.50;60.90;;;;;;5114065;28;20476;-70
2021/07/01 10:03:08;;;;;;;4.17;3.60;;;29.90;57.40;;;;;;5113794;28;20426;-69
2021/07/01 10:05:36;;;;;;;3.63;3.33;;;30.50;53.40;;;;;;5113790;28;20489;-69
2021/07/01 10:08:02;;;;;;;4.00;3.67;;;30.20;54.50;;;;;;5113577;28;20405;-70
2021/07/01 10:10:28;;;;;;;3.43;3.13;;;30.30;51.20;;;;;;5113947;28;20397;-71
2021/07/01 10:12:59;;;;;;;3.50;3.20;;;30.20;50.70;;;;;;5113903;28;20437;-68
2021/07/01 10:15:27;;;;;;;4.70;4.13;;;29.10;53.60;;;;;;5114013;28;20404;-69
2021/07/01 10:18:09;;;;;;;3.60;3.37;;;27.60;55.90;;;;;;5114499;28;20400;-70
2021/07/01 10:20:47;;;;;;;4.10;3.80;;;25.80;54.90;;;;;;5118239;28;20968;-68
2021/07/01 10:23:27;;;;;;;5.03;4.20;;;24.30;58.60;;;;;;5117928;28;20432;-69
2021/07/01 10:26:15;;;;;;;4.23;3.53;;;23.20;63.40;;;;;;5117989;28;20410;-69
2021/07/01 10:28:41;;;;;;;4.13;3.63;;;22.80;67.40;;;;;;5118056;28;20850;-70
2021/07/01 10:31:14;;;;;;;4.00;3.57;;;23.40;64.30;;;;;;5117998;28;20462;-70
2021/07/01 10:33:42;;;;;;;5.90;5.20;;;23.60;63.50;;;;;;5117196;28;20808;-70
2021/07/01 10:36:18;;;;;;;4.93;4.17;;;23.30;63.70;;;;;;5115991;28;20399;-69
2021/07/01 10:38:46;;;;;;;4.17;3.77;;;23.50;64.00;;;;;;5116247;28;20470;-70
2021/07/01 10:41:24;;;;;;;4.37;3.47;;;23.40;66.80;;;;;;5117696;28;20763;-68
2021/07/01 10:43:50;;;;;;;3.93;3.53;;;23.00;68.90;;;;;;5117613;27;20473;-68
2021/07/01 10:46:16;;;;;;;3.47;3.10;;;23.30;65.90;;;;;;5117261;28;20578;-69
2021/07/01 10:48:41;;;;;;;5.10;3.70;;;24.40;64.40;;;;;;5117384;28;20199;-68
2021/07/01 10:51:14;;;;;;;4.50;3.50;;;24.70;60.30;;;;;;5117654;28;20168;-68
2021/07/01 10:53:45;;;;;;;4.10;3.37;;;24.30;63.60;;;;;;5117281;28;20275;-69
2021/07/01 10:56:20;;;;;;;4.43;4.10;;;24.70;62.80;;;;;;5117282;28;20889;-70
2021/07/01 10:58:57;;;;;;;3.07;2.87;;;25.20;63.20;;;;;;5117435;28;20375;-69
2021/07/01 11:01:26;;;;;;;3.83;3.53;;;25.20;60.10;;;;;;5117439;28;20413;-67
2021/07/01 11:04:13;;;;;;;4.53;4.20;;;24.30;62.10;;;;;;5115900;28;20915;-69
2021/07/01 11:06:41;;;;;;;4.50;4.10;;;23.80;63.90;;;;;;5117001;28;20413;-69
2021/07/01 11:09:09;;;;;;;4.20;3.27;;;23.40;65.10;;;;;;5117150;28;20543;-67
2021/07/01 11:11:37;;;;;;;3.33;3.03;;;23.00;68.80;;;;;;5116973;28;20879;-68
2021/07/01 11:14:11;;;;;;;4.30;3.90;;;22.60;69.90;;;;;;5117166;28;20887;-68
2021/07/01 11:16:38;;;;;;;3.73;3.43;;;22.30;70.50;;;;;;5116773;28;20401;-67
2021/07/01 11:19:05;;;;;;;3.90;3.60;;;22.30;75.00;;;;;;5117034;28;20477;-70
2021/07/01 11:21:31;;;;;;;3.30;3.00;;;22.20;69.40;;;;;;5116940;28;20750;-68
2021/07/01 11:24:17;;;;;;;3.97;3.53;;;22.20;73.50;;;;;;5117079;27;20403;-70
2021/07/01 11:26:46;;;;;;;4.47;3.90;;;21.80;69.60;;;;;;5116524;28;20849;-69
2021/07/01 11:29:11;;;;;;;4.40;3.30;;;21.70;73.00;;;;;;5116698;28;20448;-70
2021/07/01 11:31:45;;;;;;;4.63;4.23;;;21.70;71.10;;;;;;5116796;28;20407;-69
2021/07/01 11:34:14;;;;;;;3.30;3.00;;;21.90;71.00;;;;;;5116560;28;20188;-68
2021/07/01 11:36:40;;;;;;;4.30;3.87;;;22.30;71.50;;;;;;5116581;28;20402;-70
2021/07/01 11:39:12;;;;;;;2.93;2.73;;;22.60;75.30;;;;;;5116738;28;20408;-67
2021/07/01 11:41:39;;;;;;;5.00;2.93;;;22.70;70.60;;;;;;5116591;28;20447;-70
2021/07/01 11:44:05;;;;;;;3.63;3.33;;;22.60;67.40;;;;;;5116387;28;20404;-68
2021/07/01 11:46:33;;;;;;;3.00;2.80;;;22.50;73.00;;;;;;5116113;28;20429;-68
2021/07/01 11:48:59;;;;;;;3.90;3.07;;;22.30;71.50;;;;;;5116465;28;20466;-69
2021/07/01 11:51:26;;;;;;;3.70;3.33;;;22.10;73.40;;;;;;5116232;28;20551;-67
2021/07/01 11:53:53;;;;;;;3.10;2.90;;;21.90;72.20;;;;;;5116208;28;20403;-70
2021/07/01 11:56:22;;;;;;;4.40;3.60;;;21.90;74.60;;;;;;5116180;28;20480;-70
2021/07/01 11:58:48;;;;;;;3.30;3.00;;;21.80;78.20;;;;;;5116274;28;20764;-69
2021/07/01 12:01:14;;;;;;;3.27;2.97;;;22.00;71.80;;;;;;5116206;28;20403;-70
2021/07/01 12:03:40;;;;;;;3.47;3.13;;;22.00;76.00;;;;;;5115972;28;20276;-70
2021/07/01 12:06:20;;;;;;;3.20;2.90;;;22.40;74.80;;;;;;5115799;28;20412;-69
2021/07/01 12:08:46;;;;;;;3.47;3.20;;;22.80;69.60;;;;;;5116076;28;20803;-68
2021/07/01 12:11:11;;;;;;;3.87;3.53;;;22.80;71.50;;;;;;5116085;28;20422;-69
2021/07/01 12:13:38;;;;;;;3.93;3.63;;;22.80;69.10;;;;;;5115745;28;20214;-70
2021/07/01 12:16:15;;;;;;;3.40;3.10;;;22.10;69.70;;;;;;5115629;28;20408;-68
2021/07/01 12:18:58;;;;;;;3.20;2.80;;;21.80;73.20;;;;;;5116046;28;20455;-69
2021/07/01 12:21:28;;;;;;;3.53;3.23;;;21.20;73.20;;;;;;5115755;28;20404;-70
2021/07/01 12:24:00;;;;;;;5.93;3.57;;;21.00;78.30;;;;;;5115657;28;20434;-68
2021/07/01 12:26:40;;;;;;;3.73;3.13;;;21.10;76.70;;;;;;5115617;28;20466;-69
2021/07/01 12:29:39;;;;;;;4.13;3.33;;;21.20;76.50;;;;;;5115675;28;20472;-67
2021/07/01 12:32:25;;;;;;;3.57;3.23;;;20.90;73.20;;;;;;5115528;28;20438;-70
2021/07/01 12:34:51;;;;;;;2.83;2.63;;;20.90;75.50;;;;;;5115311;28;20398;-68
2021/07/01 12:37:17;;;;;;;8.30;3.60;;;20.70;76.70;;;;;;5112329;28;20454;-70
2021/07/01 12:39:47;;;;;;;3.40;3.10;;;20.40;79.30;;;;;;5115661;28;20249;-68
2021/07/01 12:42:13;;;;;;;3.83;3.50;;;20.10;76.20;;;;;;5114809;28;20215;-68
2021/07/01 12:44:41;;;;;;;3.30;3.00;;;20.00;83.70;;;;;;5115172;28;20406;-68
2021/07/01 12:47:26;;;;;;;3.87;3.57;;;20.00;82.50;;;;;;5114802;28;20425;-68
2021/07/01 12:49:55;;;;;;;4.13;3.77;;;19.80;78.50;;;;;;5115209;28;20451;-68
2021/07/01 12:52:22;;;;;;;3.73;3.43;;;19.80;83.80;;;;;;5115047;28;20436;-69